createdAt,value
2022-12-07T00:02:21.690Z,14.45
2022-12-07T00:05:23.352Z,14.20
2022-12-07T00:08:24.943Z,14.20
2022-12-07T00:11:26.538Z,14.77
2022-12-07T00:14:28.129Z,15.65
2022-12-07T00:17:29.757Z,16.05
2022-12-07T00:20:32.024Z,14.18
2022-12-07T00:23:33.880Z,14.80
2022-12-07T00:26:36.903Z,14.20
2022-12-07T00:29:38.473Z,14.48
2022-12-07T00:32:40.060Z,16.10
2022-12-07T00:35:41.669Z,15.97
2022-12-07T00:38:43.357Z,16.30
2022-12-07T00:41:48.759Z,16.85
2022-12-07T00:44:50.344Z,17.40
2022-12-07T00:47:51.937Z,15.05
2022-12-07T00:50:53.520Z,16.40
2022-12-07T00:53:55.199Z,17.88
2022-12-07T00:57:00.147Z,15.87
2022-12-07T01:00:01.992Z,15.90
2022-12-07T01:03:04.677Z,16.73
2022-12-07T01:06:06.358Z,16.23
2022-12-07T01:09:08.000Z,14.32
2022-12-07T01:12:12.440Z,16.60
2022-12-07T01:15:14.066Z,15.10
2022-12-07T01:18:15.672Z,16.85
2022-12-07T01:21:22.515Z,16.88
2022-12-07T01:24:24.107Z,16.23
2022-12-07T01:27:25.685Z,17.27
2022-12-07T01:30:27.315Z,16.42
2022-12-07T01:33:29.824Z,16.20
2022-12-07T01:36:32.942Z,16.10
2022-12-07T01:39:34.522Z,16.67
2022-12-07T01:42:39.629Z,16.75
2022-12-07T01:45:41.696Z,16.95
2022-12-07T01:48:43.334Z,20.23
2022-12-07T01:51:44.984Z,16.48
2022-12-07T01:54:47.035Z,18.77
2022-12-07T01:57:49.995Z,17.37
2022-12-07T02:00:51.604Z,16.40
2022-12-07T02:03:53.209Z,17.02
2022-12-07T02:06:54.813Z,16.27
2022-12-07T02:09:56.421Z,17.08
2022-12-07T02:13:18.231Z,19.60
2022-12-07T02:16:41.040Z,16.15
2022-12-07T02:20:06.902Z,18.03
2022-12-07T02:23:26.979Z,17.73
2022-12-07T02:26:56.265Z,18.38
2022-12-07T02:30:24.051Z,16.83
2022-12-07T02:33:42.091Z,19.92
2022-12-07T02:36:45.610Z,19.65
2022-12-07T02:39:54.909Z,18.60
2022-12-07T02:43:24.193Z,19.83
2022-12-07T02:46:34.785Z,19.75
2022-12-07T02:49:37.282Z,18.92
2022-12-07T02:52:38.876Z,19.37
2022-12-07T02:55:41.359Z,23.13
2022-12-07T02:59:08.871Z,24.02
2022-12-07T03:02:18.003Z,23.15
2022-12-07T03:05:58.079Z,26.35
2022-12-07T03:09:14.855Z,22.38
2022-12-07T03:12:26.783Z,22.73
2022-12-07T03:15:33.501Z,25.27
2022-12-07T03:18:38.739Z,22.05
2022-12-07T03:21:45.690Z,23.80
2022-12-07T03:24:58.447Z,18.83
2022-12-07T03:28:06.933Z,23.38
2022-12-07T03:31:19.003Z,24.40
2022-12-07T03:34:23.207Z,25.38
2022-12-07T03:37:30.519Z,24.73
2022-12-07T03:40:38.759Z,26.60
2022-12-07T03:43:44.406Z,22.48
2022-12-07T03:47:04.364Z,25.73
2022-12-07T03:50:06.227Z,24.40
2022-12-07T03:53:25.945Z,24.23
2022-12-07T03:56:27.632Z,28.48
2022-12-07T03:59:29.214Z,27.95
2022-12-07T04:02:30.826Z,24.45
2022-12-07T04:05:32.435Z,26.52
2022-12-07T04:08:34.071Z,25.30
2022-12-07T04:11:35.659Z,26.02
2022-12-07T04:14:40.466Z,25.02
2022-12-07T04:17:42.130Z,23.23
2022-12-07T04:20:43.803Z,25.10
2022-12-07T04:23:45.380Z,21.30
2022-12-07T04:26:47.115Z,23.08
2022-12-07T04:29:51.835Z,22.33
2022-12-07T04:32:53.420Z,22.05
2022-12-07T04:35:55.088Z,20.42
2022-12-07T04:38:56.804Z,23.52
2022-12-07T04:41:58.499Z,20.58
2022-12-07T04:45:04.089Z,19.05
2022-12-07T04:48:05.858Z,20.67
2022-12-07T04:51:07.524Z,22.53
2022-12-07T04:54:09.216Z,21.58
2022-12-07T04:57:10.866Z,22.08
2022-12-07T05:00:15.406Z,22.48
2022-12-07T05:03:17.025Z,20.02
2022-12-07T05:06:18.692Z,20.50
2022-12-07T05:09:20.379Z,22.77
2022-12-07T05:12:21.951Z,22.10
2022-12-07T05:15:23.548Z,22.08
2022-12-07T05:18:28.667Z,21.13
2022-12-07T05:21:30.493Z,22.35
2022-12-07T05:24:32.087Z,24.00
2022-12-07T05:27:33.714Z,22.25
2022-12-07T05:30:42.658Z,22.50
2022-12-07T05:33:44.216Z,22.57
2022-12-07T05:36:45.804Z,21.85
2022-12-07T05:39:47.394Z,23.17
2022-12-07T05:42:48.963Z,23.17
2022-12-07T05:45:54.974Z,22.17
2022-12-07T05:48:56.550Z,23.98
2022-12-07T05:51:58.168Z,25.90
2022-12-07T05:54:59.747Z,24.33
2022-12-07T05:58:19.873Z,23.27
2022-12-07T06:01:21.433Z,25.10
2022-12-07T06:04:23.218Z,23.47
2022-12-07T06:07:24.851Z,25.00
2022-12-07T06:10:26.432Z,25.48
2022-12-07T06:13:28.108Z,24.08
2022-12-07T06:16:29.921Z,23.30
2022-12-07T06:19:31.649Z,24.02
2022-12-07T06:22:33.215Z,25.42
2022-12-07T06:25:35.284Z,25.50
2022-12-07T06:28:36.887Z,25.27
2022-12-07T06:31:38.735Z,26.73
2022-12-07T06:34:40.508Z,27.20
2022-12-07T06:37:42.076Z,30.23
2022-12-07T06:40:43.642Z,30.58
2022-12-07T06:43:45.232Z,29.65
2022-12-07T06:46:47.174Z,34.30
2022-12-07T06:49:48.750Z,36.55
2022-12-07T06:52:50.327Z,41.53
2022-12-07T06:55:51.956Z,33.85
2022-12-07T06:58:53.513Z,45.87
2022-12-07T07:01:55.236Z,51.92
2022-12-07T07:04:56.901Z,54.75
2022-12-07T07:08:21.334Z,50.57
2022-12-07T07:11:20.151Z,42.05
2022-12-07T07:14:22.341Z,36.60
2022-12-07T07:17:23.928Z,28.98
2022-12-07T07:20:25.563Z,27.37
2022-12-07T07:23:27.254Z,27.80
2022-12-07T07:26:28.808Z,26.73
2022-12-07T07:29:30.485Z,30.80
2022-12-07T07:32:32.140Z,25.75
2022-12-07T07:35:34.489Z,27.77
2022-12-07T07:38:36.176Z,27.23
2022-12-07T07:41:37.749Z,26.17
2022-12-07T07:44:42.426Z,25.05
2022-12-07T07:47:44.741Z,27.80
2022-12-07T07:50:46.552Z,23.77
2022-12-07T07:53:48.675Z,23.80
2022-12-07T07:56:50.263Z,32.00
2022-12-07T07:59:51.884Z,32.35
2022-12-07T08:02:53.477Z,37.70
2022-12-07T08:05:55.205Z,34.88
2022-12-07T08:08:58.939Z,31.20
2022-12-07T08:12:00.624Z,27.90
2022-12-07T08:15:02.357Z,29.53
2022-12-07T08:18:04.075Z,29.17
2022-12-07T08:21:06.043Z,27.02
2022-12-07T08:24:07.749Z,26.45
2022-12-07T08:27:09.415Z,26.07
2022-12-07T08:30:11.212Z,30.77
2022-12-07T08:33:12.791Z,25.75
2022-12-07T08:36:14.576Z,28.77
2022-12-07T08:39:31.321Z,27.90
2022-12-07T08:42:38.896Z,30.33
2022-12-07T08:45:41.597Z,37.70
2022-12-07T08:48:54.090Z,34.90
2022-12-07T08:51:56.307Z,34.97
2022-12-07T08:54:57.986Z,30.13
2022-12-07T08:57:59.801Z,24.98
2022-12-07T09:01:02.064Z,25.27
2022-12-07T09:04:03.919Z,25.70
2022-12-07T09:07:05.656Z,26.33
2022-12-07T09:10:07.793Z,26.58
2022-12-07T09:13:11.721Z,25.08
2022-12-07T09:16:13.420Z,28.93
2022-12-07T09:19:15.151Z,31.02
2022-12-07T09:22:16.749Z,29.90
2022-12-07T09:25:18.396Z,28.42
2022-12-07T09:28:19.990Z,29.97
2022-12-07T09:31:24.047Z,25.92
2022-12-07T09:34:27.765Z,25.23
2022-12-07T09:37:29.419Z,25.48
2022-12-07T09:40:31.032Z,25.17
2022-12-07T09:43:32.570Z,25.05
2022-12-07T09:46:39.146Z,24.45
2022-12-07T09:49:40.853Z,25.02
2022-12-07T09:52:43.140Z,20.37
2022-12-07T09:55:47.628Z,23.33
2022-12-07T09:58:49.401Z,22.05
2022-12-07T10:01:51.403Z,19.75
2022-12-07T10:04:53.116Z,19.98
2022-12-07T10:07:54.915Z,21.40
2022-12-07T10:10:57.465Z,20.00
2022-12-07T10:14:12.072Z,20.63
2022-12-07T10:17:33.327Z,19.50
2022-12-07T10:20:35.240Z,19.63
2022-12-07T10:23:41.524Z,18.03
2022-12-07T10:26:51.715Z,20.33
2022-12-07T10:29:54.045Z,17.23
2022-12-07T10:32:55.650Z,18.35
2022-12-07T10:35:57.466Z,19.07
2022-12-07T10:39:12.953Z,19.20
2022-12-07T10:42:27.398Z,16.85
2022-12-07T10:45:29.115Z,15.70
2022-12-07T10:49:04.181Z,16.67
2022-12-07T10:52:27.718Z,19.23
2022-12-07T10:55:57.419Z,17.08
2022-12-07T10:59:14.369Z,17.27
2022-12-07T11:02:21.986Z,14.52
2022-12-07T11:05:30.054Z,16.77
2022-12-07T11:08:40.492Z,12.95
2022-12-07T11:11:47.428Z,14.65
2022-12-07T11:15:18.498Z,13.80
2022-12-07T11:18:25.446Z,16.27
2022-12-07T11:21:42.384Z,15.63
2022-12-07T11:24:51.728Z,15.20
2022-12-07T11:28:32.013Z,15.98
2022-12-07T11:31:48.827Z,17.20
2022-12-07T11:35:16.270Z,16.37
2022-12-07T11:38:22.089Z,12.17
2022-12-07T11:41:33.394Z,14.88
2022-12-07T11:44:40.596Z,15.32
2022-12-07T11:48:03.831Z,14.23
2022-12-07T11:51:06.185Z,15.20
2022-12-07T11:54:16.066Z,14.85
2022-12-07T11:57:26.071Z,15.98
2022-12-07T12:00:27.718Z,16.08
2022-12-07T12:03:35.421Z,16.53
2022-12-07T12:06:37.859Z,14.50
2022-12-07T12:10:14.782Z,16.70
2022-12-07T12:17:29.817Z,15.00
2022-12-07T12:20:46.368Z,14.07
2022-12-07T12:24:03.576Z,14.15
2022-12-07T12:27:07.911Z,14.65
2022-12-07T12:30:31.402Z,14.27
2022-12-07T12:33:33.144Z,12.53
2022-12-07T12:36:45.083Z,15.53
2022-12-07T12:40:15.772Z,15.80
2022-12-07T12:43:47.154Z,15.85
2022-12-07T12:46:50.277Z,16.77
2022-12-07T12:50:18.879Z,14.87
2022-12-07T12:53:24.863Z,18.10
2022-12-07T12:56:36.948Z,17.02
2022-12-07T12:59:53.908Z,15.77
2022-12-07T13:02:56.497Z,17.27
2022-12-07T13:06:21.219Z,19.73
2022-12-07T13:09:28.184Z,15.93
2022-12-07T13:12:29.833Z,17.20
2022-12-07T13:15:38.477Z,16.27
2022-12-07T13:18:40.109Z,16.45
2022-12-07T13:21:42.294Z,16.13
2022-12-07T13:24:43.946Z,15.80
2022-12-07T13:27:58.238Z,16.07
2022-12-07T13:31:24.701Z,15.50
2022-12-07T13:34:30.648Z,15.55
2022-12-07T13:37:38.401Z,15.00
2022-12-07T13:40:40.592Z,15.75
2022-12-07T13:43:57.545Z,15.40
2022-12-07T13:47:04.990Z,15.70
2022-12-07T13:50:30.443Z,15.90
2022-12-07T13:53:32.112Z,16.73
2022-12-07T13:56:35.003Z,15.90
2022-12-07T13:59:38.586Z,15.27
2022-12-07T14:02:56.202Z,14.40
2022-12-07T14:06:39.681Z,14.65
2022-12-07T14:09:41.393Z,15.15
2022-12-07T14:12:43.246Z,15.98
2022-12-07T14:15:47.761Z,15.68
2022-12-07T14:18:49.388Z,14.32
2022-12-07T14:21:51.022Z,16.07
2022-12-07T14:25:00.191Z,15.57
2022-12-07T14:28:02.276Z,16.98
2022-12-07T14:31:04.214Z,14.02
2022-12-07T14:34:05.907Z,16.00
2022-12-07T14:37:10.373Z,17.20
2022-12-07T14:40:20.749Z,15.60
2022-12-07T14:43:22.331Z,15.60
2022-12-07T14:46:23.923Z,16.03
2022-12-07T14:55:55.978Z,18.40
2022-12-07T14:58:57.607Z,16.03
2022-12-07T15:01:59.368Z,16.55
2022-12-07T15:05:01.359Z,18.00
2022-12-07T15:08:03.345Z,16.48
2022-12-07T15:11:05.254Z,15.33
2022-12-07T15:14:09.730Z,17.42
2022-12-07T15:17:22.023Z,16.40
2022-12-07T15:20:29.793Z,16.73
2022-12-07T15:23:32.255Z,16.97
2022-12-07T15:26:33.860Z,16.52
2022-12-07T15:29:35.422Z,18.58
2022-12-07T15:32:37.143Z,19.05
2022-12-07T15:35:42.452Z,17.27
2022-12-07T15:39:12.660Z,19.25
2022-12-07T15:42:05.699Z,17.95
2022-12-07T15:45:08.432Z,19.65
2022-12-07T15:51:31.688Z,23.42
2022-12-07T15:54:33.862Z,20.98
2022-12-07T15:57:40.623Z,22.17
2022-12-07T16:00:42.340Z,21.97
2022-12-07T16:03:44.210Z,21.35
2022-12-07T16:06:45.754Z,24.17
2022-12-07T16:09:56.347Z,22.27
2022-12-07T16:12:57.926Z,22.03
2022-12-07T16:15:59.576Z,19.65
2022-12-07T16:19:01.164Z,16.08
2022-12-07T16:22:03.070Z,15.60
2022-12-07T16:25:05.272Z,13.80
2022-12-07T16:28:11.440Z,13.60
2022-12-07T16:31:15.034Z,13.88
2022-12-07T16:34:16.849Z,13.20
2022-12-07T16:37:18.540Z,11.85
2022-12-07T16:40:24.485Z,12.60
2022-12-07T16:43:26.079Z,13.75
2022-12-07T16:46:27.749Z,11.93
2022-12-07T16:49:29.472Z,11.98
2022-12-07T16:52:31.132Z,13.60
2022-12-07T16:55:34.334Z,12.25
2022-12-07T16:58:39.557Z,14.98
2022-12-07T17:01:41.120Z,14.20
2022-12-07T17:04:43.442Z,13.23
2022-12-07T17:07:45.150Z,15.80
2022-12-07T17:10:49.895Z,12.70
2022-12-07T17:14:10.097Z,14.43
2022-12-07T17:17:11.681Z,12.80
2022-12-07T17:20:13.541Z,12.30
2022-12-07T17:23:15.302Z,11.68
2022-12-07T17:26:22.266Z,13.23
2022-12-07T17:29:28.370Z,11.52
2022-12-07T17:32:29.981Z,11.35
2022-12-07T17:35:31.585Z,11.80
2022-12-07T17:38:33.171Z,18.75
2022-12-07T17:41:56.726Z,12.00
2022-12-07T17:44:58.762Z,13.48
2022-12-07T17:48:00.354Z,14.05
2022-12-07T17:51:20.620Z,13.90
2022-12-07T17:54:22.396Z,16.03
2022-12-07T17:57:23.960Z,14.40
2022-12-07T18:00:30.732Z,15.32
2022-12-07T18:03:32.325Z,16.58
2022-12-07T18:06:34.109Z,16.97
2022-12-07T18:09:35.733Z,16.77
2022-12-07T18:12:41.080Z,17.85
2022-12-07T18:15:42.675Z,16.55
2022-12-07T18:18:50.636Z,16.70
2022-12-07T18:21:54.019Z,17.42
2022-12-07T18:24:55.962Z,15.90
2022-12-07T18:27:57.559Z,17.92
2022-12-07T18:31:14.789Z,19.13
2022-12-07T18:34:19.294Z,17.00
2022-12-07T18:37:20.963Z,23.20
2022-12-07T18:40:22.523Z,16.80
2022-12-07T18:43:25.666Z,19.65
2022-12-07T18:46:27.368Z,17.70
2022-12-07T18:49:29.012Z,17.52
2022-12-07T18:52:30.593Z,17.23
2022-12-07T18:55:32.424Z,19.27
2022-12-07T18:58:34.195Z,16.48
2022-12-07T19:01:36.552Z,17.27
2022-12-07T19:04:38.240Z,16.60
2022-12-07T19:07:39.838Z,21.60
2022-12-07T19:10:41.466Z,21.70
2022-12-07T19:13:46.355Z,20.92
2022-12-07T19:16:49.929Z,19.60
2022-12-07T19:19:51.612Z,16.95
2022-12-07T19:22:53.219Z,18.83
2022-12-07T19:25:55.195Z,17.88
2022-12-07T19:28:56.767Z,19.63
2022-12-07T19:31:59.566Z,20.02
2022-12-07T19:35:01.476Z,16.90
2022-12-07T19:38:03.472Z,18.50
2022-12-07T19:41:32.368Z,16.90
2022-12-07T19:44:34.308Z,22.63
2022-12-07T19:47:35.895Z,19.48
2022-12-07T19:50:37.496Z,17.53
2022-12-07T19:53:39.123Z,21.42
2022-12-07T19:56:40.838Z,20.00
2022-12-07T19:59:42.475Z,17.15
2022-12-07T20:02:44.118Z,19.93
2022-12-07T20:05:45.750Z,20.83
2022-12-07T20:08:47.754Z,19.45
2022-12-07T20:12:08.067Z,17.77
2022-12-07T20:15:13.201Z,19.35
2022-12-07T20:18:14.739Z,20.90
2022-12-07T20:21:20.641Z,21.30
2022-12-07T20:24:24.000Z,22.13
2022-12-07T20:27:25.640Z,19.17
2022-12-07T20:30:27.220Z,18.88
2022-12-07T20:33:30.085Z,20.43
2022-12-07T20:36:33.341Z,21.70
2022-12-07T20:39:35.198Z,18.50
2022-12-07T20:42:36.927Z,19.52
2022-12-07T20:45:51.346Z,19.38
2022-12-07T20:48:53.152Z,22.10
2022-12-07T20:51:54.751Z,20.85
2022-12-07T20:54:56.660Z,22.07
2022-12-07T20:57:58.498Z,20.10
2022-12-07T21:01:01.458Z,20.13
2022-12-07T21:04:03.403Z,19.17
2022-12-07T21:07:04.968Z,20.25
2022-12-07T21:10:07.646Z,18.65
2022-12-07T21:13:09.435Z,19.77
2022-12-07T21:16:18.558Z,24.67
2022-12-07T21:19:20.212Z,19.63
2022-12-07T21:22:21.804Z,18.58
2022-12-07T21:25:23.466Z,20.57
2022-12-07T21:28:25.137Z,21.40
2022-12-07T21:31:26.885Z,24.77
2022-12-07T21:34:28.752Z,25.70
2022-12-07T21:37:33.151Z,24.50
2022-12-07T21:40:34.792Z,25.33
2022-12-07T21:43:36.362Z,24.83
2022-12-07T21:46:41.281Z,26.40
2022-12-07T21:49:42.911Z,27.48
2022-12-07T21:52:44.519Z,30.80
2022-12-07T21:55:46.105Z,26.55
2022-12-07T21:58:47.821Z,27.73
2022-12-07T22:01:49.764Z,25.55
2022-12-07T22:04:51.430Z,30.05
2022-12-07T22:07:53.016Z,32.30
2022-12-07T22:10:54.630Z,28.38
2022-12-07T22:14:14.527Z,27.50
2022-12-07T22:17:19.243Z,29.33
2022-12-07T22:20:21.508Z,31.03
2022-12-07T22:23:24.263Z,30.98
2022-12-07T22:26:25.952Z,30.00
2022-12-07T22:29:27.675Z,29.45
2022-12-07T22:35:57.759Z,28.35
2022-12-07T22:39:00.576Z,28.35
2022-12-07T22:42:02.390Z,28.47
2022-12-07T22:45:04.510Z,28.50
2022-12-07T22:48:10.808Z,29.50
2022-12-07T22:51:41.505Z,26.52
2022-12-07T22:54:43.084Z,27.10
2022-12-07T22:57:44.628Z,26.38
2022-12-07T23:00:46.404Z,24.05
2022-12-07T23:03:48.145Z,25.47
2022-12-07T23:06:49.785Z,25.15
2022-12-07T23:09:51.346Z,27.00
2022-12-07T23:13:11.248Z,27.67
2022-12-07T23:16:14.513Z,25.55
2022-12-07T23:19:19.476Z,24.52
2022-12-07T23:22:21.031Z,24.50
2022-12-07T23:25:23.039Z,22.37
2022-12-07T23:28:24.604Z,26.50
2022-12-07T23:31:26.416Z,23.80
2022-12-07T23:34:28.041Z,23.73
2022-12-07T23:37:29.669Z,23.03
2022-12-07T23:40:31.247Z,22.60
2022-12-07T23:43:32.819Z,21.35
2022-12-07T23:46:34.721Z,22.60
2022-12-07T23:49:36.362Z,23.00
2022-12-07T23:52:37.944Z,20.25
2022-12-07T23:55:45.260Z,22.27
2022-12-07T23:58:47.368Z,18.98
